Time;durP1;ratioP1;P1;durP2;ratioP2;P2;SDS_P1;SDS_P2;PMS_P1;PMS_P2;Temp;Humidity;BMP_temperature;BMP_pressure;BME280_temperature;BME280_humidity;BME280_pressure;Samples;Min_cycle;Max_cycle;Signal;HPM_P1;HPM_P2
2022/06/27 00:01:48;;;;;;;1999.90;999.90;;;15.60;99.90;;;;;;5020876;28;20094;-73
2022/06/27 00:04:14;;;;;;;1999.90;999.90;;;15.50;99.90;;;;;;5032548;28;20033;-73
2022/06/27 00:06:40;;;;;;;1999.90;999.90;;;15.40;99.90;;;;;;5034050;28;20462;-73
2022/06/27 00:09:05;;;;;;;1999.90;999.90;;;15.30;99.90;;;;;;5034353;28;20059;-80
2022/06/27 00:11:31;;;;;;;1999.90;999.90;;;15.30;99.90;;;;;;5034272;28;20148;-80
2022/06/27 00:13:57;;;;;;;1999.90;999.90;;;15.10;99.90;;;;;;5034446;28;20048;-74
2022/06/27 00:16:23;;;;;;;1999.90;999.90;;;15.20;99.90;;;;;;5033910;28;20029;-74
2022/06/27 00:18:48;;;;;;;1999.90;999.90;;;15.10;99.90;;;;;;5034077;28;20025;-80
2022/06/27 00:21:14;;;;;;;1999.90;999.90;;;15.10;99.90;;;;;;5034143;28;20022;-80
2022/06/27 00:23:40;;;;;;;1999.90;999.90;;;15.00;99.90;;;;;;5016143;28;20029;-80
2022/06/27 00:26:06;;;;;;;1999.90;999.90;;;15.00;99.90;;;;;;5034228;28;20060;-74
2022/06/27 00:28:31;;;;;;;1999.90;999.90;;;14.90;99.90;;;;;;5033961;28;20029;-73
2022/06/27 00:30:57;;;;;;;1999.90;999.90;;;14.80;99.90;;;;;;5033979;28;20021;-73
2022/06/27 00:33:23;;;;;;;1999.90;999.90;;;14.80;99.90;;;;;;5033750;28;20029;-80
2022/06/27 00:35:50;;;;;;;1999.90;999.90;;;14.70;99.90;;;;;;5034233;28;20455;-80
2022/06/27 00:38:16;;;;;;;1999.90;999.90;;;14.70;99.90;;;;;;5026972;28;20152;-80
2022/06/27 00:40:42;;;;;;;1999.90;999.90;;;14.60;99.90;;;;;;5014666;28;20484;-74
2022/06/27 00:43:08;;;;;;;1999.90;999.90;;;14.60;99.90;;;;;;5033711;28;20032;-73
2022/06/27 00:45:34;;;;;;;1999.90;999.90;;;14.60;99.90;;;;;;5033387;28;20037;-79
2022/06/27 00:47:59;;;;;;;1999.90;999.90;;;14.70;99.90;;;;;;5021101;28;20033;-79
2022/06/27 00:50:25;;;;;;;1999.90;999.90;;;14.70;99.90;;;;;;5033781;28;20032;-80
2022/06/27 00:52:51;;;;;;;1999.90;999.90;;;14.70;99.90;;;;;;5033108;28;20030;-80
2022/06/27 00:55:17;;;;;;;1999.90;999.90;;;14.70;99.90;;;;;;5033709;28;20061;-73
2022/06/27 00:57:43;;;;;;;1999.90;999.90;;;14.70;99.90;;;;;;5032260;28;20053;-74
2022/06/27 01:00:10;;;;;;;1999.90;999.90;;;14.70;99.90;;;;;;5003994;28;20018;-80
2022/06/27 01:02:36;;;;;;;1999.90;999.90;;;14.80;99.90;;;;;;5032086;28;20049;-80
2022/06/27 01:05:03;;;;;;;1999.90;999.90;;;14.90;99.90;;;;;;5015110;28;20080;-79
2022/06/27 01:07:29;;;;;;;1999.90;999.90;;;15.00;99.90;;;;;;5014924;28;20053;-80
2022/06/27 01:09:57;;;;;;;1999.90;999.90;;;15.00;99.90;;;;;;5033456;28;20503;-73
2022/06/27 01:12:23;;;;;;;1999.90;999.90;;;15.00;99.90;;;;;;5015404;28;20029;-80
2022/06/27 01:14:49;;;;;;;1999.90;999.90;;;14.90;99.90;;;;;;5032586;28;20032;-80
2022/06/27 01:17:16;;;;;;;1999.90;999.90;;;14.80;99.90;;;;;;5032965;28;20053;-80
2022/06/27 01:19:42;;;;;;;1999.90;999.90;;;14.70;99.90;;;;;;5015345;28;20374;-74
2022/06/27 01:22:09;;;;;;;1999.90;999.90;;;14.60;99.90;;;;;;5032642;28;20588;-73
2022/06/27 01:24:34;;;;;;;1999.90;999.90;;;14.50;99.90;;;;;;5033016;28;20071;-80
2022/06/27 01:27:00;;;;;;;1999.90;999.90;;;14.50;99.90;;;;;;5032122;28;20435;-80
2022/06/27 01:29:27;;;;;;;1999.90;999.90;;;14.40;99.90;;;;;;5018483;28;20022;-79
2022/06/27 01:31:52;;;;;;;1999.90;999.90;;;14.40;99.90;;;;;;4995399;28;20026;-74
2022/06/27 01:34:19;;;;;;;1999.90;999.90;;;14.30;99.90;;;;;;5027665;28;20456;-73
2022/06/27 01:36:46;;;;;;;1999.90;999.90;;;14.30;99.90;;;;;;5014954;28;20476;-80
2022/06/27 01:39:15;;;;;;;1999.90;999.90;;;14.20;99.90;;;;;;5014053;28;20021;-80
2022/06/27 01:41:44;;;;;;;1999.90;999.90;;;14.20;99.90;;;;;;5021919;28;20021;-80
2022/06/27 01:44:10;;;;;;;1999.90;999.90;;;14.20;99.90;;;;;;5031820;28;20575;-80
2022/06/27 01:46:45;;;;;;;1999.90;999.90;;;14.10;99.90;;;;;;5013176;28;20097;-74
2022/06/27 01:49:15;;;;;;;1999.90;999.90;;;14.10;99.90;;;;;;5029709;28;20029;-80
2022/06/27 01:51:47;;;;;;;1999.90;999.90;;;14.10;99.90;;;;;;5014826;28;20029;-80
2022/06/27 01:54:15;;;;;;;1999.90;999.90;;;14.10;99.90;;;;;;5032753;28;20022;-80
2022/06/27 01:56:42;;;;;;;1999.90;999.90;;;14.10;99.90;;;;;;5032483;28;20024;-80
2022/06/27 01:59:09;;;;;;;1999.90;999.90;;;14.10;99.90;;;;;;5032476;28;20040;-73
2022/06/27 02:01:35;;;;;;;1999.90;999.90;;;14.10;99.90;;;;;;5032370;28;20107;-80
2022/06/27 02:04:01;;;;;;;1999.90;999.90;;;14.10;99.90;;;;;;5032963;28;20032;-79
2022/06/27 02:06:29;;;;;;;1999.90;999.90;;;14.10;99.90;;;;;;5018037;28;20059;-80
2022/06/27 02:08:56;;;;;;;1999.90;999.90;;;14.00;99.90;;;;;;5035255;28;20484;-78
2022/06/27 02:11:23;;;;;;;1999.90;999.90;;;14.00;99.90;;;;;;5036607;28;20428;-73
2022/06/27 02:13:49;;;;;;;1999.90;999.90;;;14.00;99.90;;;;;;5036727;28;20026;-74
2022/06/27 02:16:17;;;;;;;1999.90;999.90;;;14.00;99.90;;;;;;5018491;28;20040;-80
2022/06/27 02:18:43;;;;;;;1999.90;999.90;;;13.90;99.90;;;;;;5036415;28;20025;-80
2022/06/27 02:21:21;;;;;;;1999.90;999.90;;;13.80;99.90;;;;;;5018429;28;20026;-80
2022/06/27 02:23:48;;;;;;;1999.90;999.90;;;13.70;99.90;;;;;;5017080;28;20050;-80
2022/06/27 02:26:15;;;;;;;1999.90;999.90;;;13.70;99.90;;;;;;5016622;28;20034;-73
2022/06/27 02:28:42;;;;;;;1999.90;999.90;;;13.60;99.90;;;;;;5027166;28;20079;-73
2022/06/27 02:31:09;;;;;;;1999.90;999.90;;;13.60;99.90;;;;;;5042060;28;20029;-80
2022/06/27 02:33:41;;;;;;;1999.90;999.90;;;13.60;99.90;;;;;;5034396;28;20021;-80
2022/06/27 02:36:09;;;;;;;1999.90;999.90;;;13.60;99.90;;;;;;5038337;28;20043;-80
2022/06/27 02:38:36;;;;;;;1999.90;999.90;;;13.60;99.90;;;;;;5037224;28;20017;-74
2022/06/27 02:41:04;;;;;;;1999.90;999.90;;;13.60;99.90;;;;;;5017477;28;20077;-73
2022/06/27 02:43:32;;;;;;;1999.90;999.90;;;13.60;99.90;;;;;;5018318;28;20075;-80
2022/06/27 02:45:58;;;;;;;1999.90;999.90;;;13.60;99.90;;;;;;5032390;28;20060;-80
2022/06/27 02:48:25;;;;;;;1999.90;999.90;;;13.60;99.90;;;;;;5026726;28;20069;-80
2022/06/27 02:51:05;;;;;;;1999.90;999.90;;;13.60;99.90;;;;;;5035975;28;20025;-73
2022/06/27 02:53:45;;;;;;;1999.90;999.90;;;13.70;99.90;;;;;;5035692;28;20033;-80
2022/06/27 02:56:14;;;;;;;1999.90;999.90;;;13.70;99.90;;;;;;5035122;28;20029;-73
2022/06/27 02:58:56;;;;;;;1999.90;999.90;;;13.60;99.90;;;;;;5035979;28;20033;-80
2022/06/27 03:01:22;;;;;;;1999.90;999.90;;;13.60;99.90;;;;;;5017870;28;20025;-73
2022/06/27 03:03:50;;;;;;;1999.90;999.90;;;13.50;99.90;;;;;;5035522;28;20025;-73
2022/06/27 03:06:16;;;;;;;1999.90;999.90;;;13.50;99.90;;;;;;5037218;28;20548;-74
2022/06/27 03:08:44;;;;;;;1999.90;999.90;;;13.50;99.90;;;;;;5035619;28;20113;-80
2022/06/27 03:11:13;;;;;;;1999.90;999.90;;;13.50;99.90;;;;;;5035404;28;20032;-73
2022/06/27 03:13:38;;;;;;;1999.90;999.90;;;13.50;99.90;;;;;;5035647;28;20472;-80
2022/06/27 03:16:04;;;;;;;1999.90;999.90;;;13.60;99.90;;;;;;5035239;28;20029;-74
2022/06/27 03:18:30;;;;;;;1999.90;999.90;;;13.60;99.90;;;;;;5035301;28;20021;-73
2022/06/27 03:20:56;;;;;;;1999.90;999.90;;;13.60;99.90;;;;;;5035223;28;20048;-80
2022/06/27 03:23:22;;;;;;;1999.90;999.90;;;13.60;99.90;;;;;;5035082;28;20080;-80
2022/06/27 03:25:48;;;;;;;1999.90;999.90;;;13.60;99.90;;;;;;5035460;28;20033;-74
2022/06/27 03:28:14;;;;;;;1999.90;999.90;;;13.60;99.90;;;;;;5035012;28;20432;-80
2022/06/27 03:30:40;;;;;;;1999.90;999.90;;;13.70;99.90;;;;;;5035458;28;20021;-74
2022/06/27 03:33:05;;;;;;;1999.90;999.90;;;13.70;99.90;;;;;;5034821;28;20033;-80
2022/06/27 03:35:31;;;;;;;1999.90;999.90;;;13.60;99.90;;;;;;5035540;28;20028;-80
2022/06/27 03:37:57;;;;;;;1999.90;999.90;;;13.60;99.90;;;;;;5031055;28;20105;-79
2022/06/27 03:40:23;;;;;;;1999.90;999.90;;;13.60;99.90;;;;;;5035117;28;20488;-73
2022/06/27 03:42:48;;;;;;;1999.90;999.90;;;13.60;99.90;;;;;;5033846;28;20026;-74
2022/06/27 03:45:14;;;;;;;1999.90;999.90;;;13.50;99.90;;;;;;5034974;28;20026;-73
2022/06/27 03:47:51;;;;;;;1999.90;999.90;;;13.50;99.90;;;;;;5033957;28;20093;-80
2022/06/27 03:50:18;;;;;;;1999.90;999.90;;;13.40;99.90;;;;;;5034816;28;20072;-80
2022/06/27 03:52:44;;;;;;;1999.90;999.90;;;13.40;99.90;;;;;;5034486;28;20443;-80
2022/06/27 03:55:11;;;;;;;1999.90;999.90;;;13.40;99.90;;;;;;5023198;28;20022;-73
2022/06/27 03:57:48;;;;;;;1999.90;999.90;;;13.40;99.90;;;;;;5032346;28;20121;-73
2022/06/27 04:00:15;;;;;;;1999.90;999.90;;;13.50;99.90;;;;;;5022339;28;20028;-80
2022/06/27 04:02:41;;;;;;;1999.90;999.90;;;13.60;99.90;;;;;;5030145;28;20026;-80
2022/06/27 04:05:07;;;;;;;1999.90;999.90;;;13.60;99.90;;;;;;5016840;28;20492;-73
2022/06/27 04:07:33;;;;;;;1999.90;999.90;;;13.70;99.90;;;;;;5033480;28;20528;-74
2022/06/27 04:09:58;;;;;;;1999.90;999.90;;;13.70;99.90;;;;;;5034464;28;20101;-80
2022/06/27 04:12:24;;;;;;;1999.90;999.90;;;13.80;99.90;;;;;;5034305;28;20034;-73
2022/06/27 04:14:50;;;;;;;1999.90;999.90;;;13.90;99.90;;;;;;5033920;28;20028;-80
2022/06/27 04:17:16;;;;;;;1999.90;999.90;;;13.90;99.90;;;;;;5016339;28;20404;-74
2022/06/27 04:19:42;;;;;;;1999.90;999.90;;;14.00;99.90;;;;;;5034157;28;20017;-80
2022/06/27 04:22:10;;;;;;;1999.90;999.90;;;14.10;99.90;;;;;;5033690;28;20499;-73
2022/06/27 04:24:36;;;;;;;1999.90;999.90;;;14.20;99.90;;;;;;5034367;28;20057;-74
2022/06/27 04:27:03;;;;;;;1999.90;999.90;;;14.20;99.90;;;;;;5032493;28;20071;-79
2022/06/27 04:29:30;;;;;;;1999.90;999.90;;;14.30;99.90;;;;;;5019346;28;20068;-74
2022/06/27 04:31:56;;;;;;;1999.90;999.90;;;14.30;99.90;;;;;;5014067;28;20073;-73
2022/06/27 04:34:22;;;;;;;1999.90;999.90;;;14.30;99.90;;;;;;5014049;28;20026;-80
2022/06/27 04:36:47;;;;;;;1999.90;999.90;;;14.40;99.90;;;;;;5014157;28;20456;-74
2022/06/27 04:39:15;;;;;;;1999.90;999.90;;;14.40;99.90;;;;;;5028505;28;20029;-73
2022/06/27 04:41:43;;;;;;;1999.90;999.90;;;14.30;99.90;;;;;;5033744;28;20073;-80
2022/06/27 04:44:09;;;;;;;1999.90;999.90;;;14.20;99.90;;;;;;5033702;28;20037;-74
2022/06/27 04:46:35;;;;;;;1999.90;999.90;;;14.20;99.90;;;;;;5033504;28;20033;-80
2022/06/27 04:49:01;;;;;;;1999.90;999.90;;;14.10;99.90;;;;;;5015825;28;20030;-73
2022/06/27 04:51:27;;;;;;;1999.90;999.90;;;14.10;99.90;;;;;;5033340;28;20376;-79
2022/06/27 04:53:52;;;;;;;1999.90;999.90;;;14.10;99.90;;;;;;5033736;28;20041;-80
2022/06/27 04:56:19;;;;;;;1999.90;999.90;;;14.10;99.90;;;;;;5015676;28;20480;-80
2022/06/27 04:58:45;;;;;;;1999.90;999.90;;;14.20;99.90;;;;;;5030724;28;20013;-80
2022/06/27 05:01:10;;;;;;;1999.90;999.90;;;14.20;99.90;;;;;;5021904;28;20017;-74
2022/06/27 05:03:36;;;;;;;1999.90;999.90;;;14.30;99.90;;;;;;5015675;28;20112;-80
2022/06/27 05:06:02;;;;;;;1999.90;999.90;;;14.40;99.90;;;;;;5015381;28;20049;-79
2022/06/27 05:08:27;;;;;;;1999.90;999.90;;;14.40;99.90;;;;;;5032118;28;20108;-80
2022/06/27 05:10:53;;;;;;;1999.90;999.90;;;14.40;99.90;;;;;;5024628;28;20026;-73
2022/06/27 05:13:18;;;;;;;1999.90;999.90;;;14.40;99.90;;;;;;5013419;28;20084;-73
2022/06/27 05:15:44;;;;;;;1999.90;999.90;;;14.50;99.90;;;;;;5013202;28;20030;-73
2022/06/27 05:18:10;;;;;;;1999.90;999.90;;;14.50;99.90;;;;;;5014901;28;20520;-74
2022/06/27 05:20:35;;;;;;;1999.90;999.90;;;14.50;99.90;;;;;;5032925;28;20022;-80
2022/06/27 05:23:01;;;;;;;1999.90;999.90;;;14.60;99.90;;;;;;5032614;28;20030;-80
2022/06/27 05:25:28;;;;;;;1999.90;999.90;;;14.70;99.90;;;;;;5032899;28;20034;-80
2022/06/27 05:27:56;;;;;;;1999.90;999.90;;;14.70;99.90;;;;;;5030991;28;20112;-73
2022/06/27 05:30:21;;;;;;;1999.90;999.90;;;14.90;99.90;;;;;;5021520;28;20025;-73
2022/06/27 05:32:47;;;;;;;1999.90;999.90;;;15.00;99.90;;;;;;5014821;28;20029;-80
2022/06/27 05:35:13;;;;;;;1999.90;999.90;;;15.10;99.90;;;;;;5032479;28;20033;-80
2022/06/27 05:37:39;;;;;;;1999.90;999.90;;;15.20;99.90;;;;;;5031137;28;20022;-80
2022/06/27 05:40:07;;;;;;;1999.90;999.90;;;15.30;99.90;;;;;;5012283;28;20034;-73
2022/06/27 05:42:33;;;;;;;1999.90;999.90;;;15.50;99.90;;;;;;5024491;28;20021;-79
2022/06/27 05:44:59;;;;;;;1999.90;999.90;;;15.60;99.90;;;;;;5031976;28;20021;-79
2022/06/27 05:47:26;;;;;;;1999.90;999.90;;;15.70;99.90;;;;;;5019467;28;20049;-73
2022/06/27 05:49:52;;;;;;;1999.90;999.90;;;15.80;99.90;;;;;;5014874;28;20065;-80
2022/06/27 05:52:17;;;;;;;1999.90;999.90;;;15.90;99.90;;;;;;5032347;28;20447;-74
2022/06/27 05:54:44;;;;;;;1999.90;999.90;;;16.00;99.90;;;;;;5032676;28;20131;-73
2022/06/27 05:57:11;;;;;;;1999.90;999.90;;;16.10;99.90;;;;;;5032411;28;20388;-74
2022/06/27 05:59:37;;;;;;;1999.90;999.90;;;16.30;99.90;;;;;;5020916;28;20212;-81
2022/06/27 06:02:03;;;;;;;1999.90;999.90;;;16.50;99.90;;;;;;5032226;28;20018;-73
2022/06/27 06:04:30;;;;;;;1999.90;999.90;;;16.70;99.90;;;;;;5012812;28;20116;-80
2022/06/27 06:06:55;;;;;;;1999.90;999.90;;;16.80;99.90;;;;;;4994594;28;20185;-73
2022/06/27 06:09:21;;;;;;;1999.90;999.90;;;16.90;99.90;;;;;;5020688;28;20532;-80
2022/06/27 06:11:48;;;;;;;1999.90;999.90;;;16.90;99.90;;;;;;5032452;28;20040;-74
2022/06/27 06:14:17;;;;;;;1999.90;999.90;;;16.90;99.90;;;;;;5031222;28;20025;-80
2022/06/27 06:16:43;;;;;;;1999.90;999.90;;;16.90;99.90;;;;;;5030932;28;20121;-73
2022/06/27 06:19:10;;;;;;;1999.90;999.90;;;16.90;99.90;;;;;;5024673;28;20471;-74
2022/06/27 06:21:35;;;;;;;1999.90;999.90;;;17.00;99.90;;;;;;5031762;28;20033;-81
2022/06/27 06:24:02;;;;;;;1999.90;999.90;;;17.00;99.90;;;;;;5032185;28;20021;-80
2022/06/27 06:26:28;;;;;;;1999.90;999.90;;;17.00;99.90;;;;;;5020395;28;20399;-81
2022/06/27 06:28:55;;;;;;;1999.90;999.90;;;17.10;99.90;;;;;;5022082;28;20030;-80
2022/06/27 06:31:22;;;;;;;1999.90;999.90;;;17.20;99.90;;;;;;5028548;28;20053;-81
2022/06/27 06:33:53;;;;;;;1999.90;999.90;;;17.30;99.90;;;;;;5031865;28;20096;-73
2022/06/27 06:36:21;;;;;;;1999.90;999.90;;;17.30;99.90;;;;;;5032176;28;20033;-80
2022/06/27 06:38:47;;;;;;;1999.90;999.90;;;17.40;99.90;;;;;;5014141;28;20021;-71
2022/06/27 06:41:14;;;;;;;1999.90;999.90;;;17.60;99.90;;;;;;5031519;28;20025;-78
2022/06/27 06:43:40;;;;;;;1999.90;999.90;;;17.90;99.90;;;;;;5022571;28;20473;-71
2022/06/27 06:46:06;;;;;;;1999.90;999.90;;;18.00;99.90;;;;;;5012303;28;20026;-79
2022/06/27 06:48:32;;;;;;;1999.90;999.90;;;17.90;99.90;;;;;;5023845;28;20446;-80
2022/06/27 06:50:58;;;;;;;1999.90;999.90;;;17.70;99.90;;;;;;5033818;28;20120;-71
2022/06/27 06:53:24;;;;;;;1999.90;999.90;;;17.60;99.90;;;;;;5035620;28;20105;-71
2022/06/27 06:55:50;;;;;;;1999.90;999.90;;;17.40;99.90;;;;;;5034013;28;20480;-80
2022/06/27 06:58:17;;;;;;;1999.90;999.90;;;17.30;99.90;;;;;;5031834;28;20017;-71
2022/06/27 07:00:43;;;;;;;1999.90;999.90;;;17.20;99.90;;;;;;5022258;28;20421;-79
2022/06/27 07:03:10;;;;;;;1999.90;999.90;;;17.30;99.90;;;;;;5034411;28;20014;-77
2022/06/27 07:05:36;;;;;;;1999.90;999.90;;;17.50;99.90;;;;;;5023218;28;20054;-77
2022/06/27 07:08:02;;;;;;;1999.90;999.90;;;17.70;99.90;;;;;;5024435;28;20512;-78
2022/06/27 07:10:28;;;;;;;1999.90;999.90;;;17.80;99.90;;;;;;5025847;28;20123;-78
2022/06/27 07:12:54;;;;;;;1999.90;999.90;;;18.10;99.90;;;;;;5022361;28;20082;-71
2022/06/27 07:15:20;;;;;;;1999.90;999.90;;;18.20;99.90;;;;;;5030782;28;20507;-78
2022/06/27 07:17:49;;;;;;;1999.90;999.90;;;18.40;99.90;;;;;;5028567;28;20088;-77
2022/06/27 07:20:19;;;;;;;1999.90;999.90;;;18.60;99.90;;;;;;5022329;28;20069;-71
2022/06/27 07:22:46;;;;;;;1999.90;999.90;;;18.80;99.90;;;;;;5019639;28;20047;-77
2022/06/27 07:25:12;;;;;;;1999.90;999.90;;;19.00;99.90;;;;;;5028351;28;20029;-71
2022/06/27 07:27:40;;;;;;;1999.90;999.90;;;18.80;99.90;;;;;;5012685;28;20163;-70
2022/06/27 07:30:09;;;;;;;1999.90;999.90;;;18.70;99.90;;;;;;5030950;28;20021;-78
2022/06/27 07:32:41;;;;;;;1999.90;999.90;;;19.20;99.90;;;;;;5033787;28;20484;-78
2022/06/27 07:35:11;;;;;;;1999.90;999.90;;;19.90;99.90;;;;;;5020900;28;20037;-71
2022/06/27 07:37:40;;;;;;;1999.90;999.90;;;20.20;99.90;;;;;;5005216;28;20065;-78
2022/06/27 07:40:07;;;;;;;1999.90;999.90;;;20.30;99.90;;;;;;5033780;28;20040;-78
2022/06/27 07:42:33;;;;;;;1999.90;999.90;;;22.70;98.20;;;;;;5031344;28;20469;-71
2022/06/27 07:44:58;;;;;;;1999.90;999.90;;;23.50;96.10;;;;;;5033781;28;20024;-78
2022/06/27 07:47:24;;;;;;;1999.90;999.90;;;23.40;95.30;;;;;;5029925;28;20507;-71
2022/06/27 07:49:50;;;;;;;1999.90;999.90;;;24.30;95.60;;;;;;5032944;28;20103;-78
2022/06/27 07:52:15;;;;;;;1999.90;999.90;;;26.10;92.70;;;;;;5023343;28;20048;-72
2022/06/27 07:54:41;;;;;;;1999.90;999.90;;;24.80;92.60;;;;;;5027306;28;20026;-71
2022/06/27 07:57:07;;;;;;;1999.90;999.90;;;23.50;94.20;;;;;;5020355;28;20030;-77
2022/06/27 07:59:33;;;;;;;1999.90;999.90;;;21.70;96.00;;;;;;5032030;28;20025;-79
2022/06/27 08:01:58;;;;;;;1999.90;999.90;;;23.10;95.00;;;;;;5027056;28;20049;-71
2022/06/27 08:04:24;;;;;;;1999.90;999.90;;;24.60;93.60;;;;;;5027736;28;20112;-71
2022/06/27 08:06:50;;;;;;;1999.90;999.90;;;26.10;92.50;;;;;;5033008;28;20527;-78
2022/06/27 08:09:19;;;;;;;1999.90;999.90;;;25.70;92.10;;;;;;5024641;28;20030;-78
2022/06/27 08:11:45;;;;;;;1999.90;999.90;;;23.80;93.20;;;;;;5026320;28;20494;-72
2022/06/27 08:14:13;;;;;;;1999.90;999.90;;;23.00;95.10;;;;;;5019002;28;20021;-78
2022/06/27 08:16:41;;;;;;;1999.90;999.90;;;22.00;95.30;;;;;;5030668;28;20548;-72
2022/06/27 08:19:08;;;;;;;1999.90;999.90;;;22.30;95.30;;;;;;5021490;28;20030;-78
2022/06/27 08:21:35;;;;;;;1999.90;999.90;;;25.10;92.80;;;;;;5028841;28;20021;-79
2022/06/27 08:24:07;;;;;;;1999.90;999.90;;;26.80;90.60;;;;;;5013485;28;20022;-78
2022/06/27 08:26:34;;;;;;;1999.90;999.90;;;28.20;90.40;;;;;;5012954;28;20076;-79
2022/06/27 08:29:02;;;;;;;1999.90;999.90;;;26.40;88.80;;;;;;5015588;28;20021;-78
2022/06/27 08:31:30;;;;;;;1999.90;999.90;;;26.80;90.40;;;;;;5013295;28;20046;-72
2022/06/27 08:33:58;;;;;;;1999.90;999.90;;;24.00;91.60;;;;;;5021443;28;20033;-78
2022/06/27 08:36:27;;;;;;;1999.90;999.90;;;22.30;93.60;;;;;;5018961;28;20068;-78
2022/06/27 08:38:53;;;;;;;1999.90;999.90;;;24.30;92.30;;;;;;5004052;28;20018;-79
2022/06/27 08:41:20;;;;;;;1999.90;999.90;;;27.10;90.20;;;;;;5016204;28;20033;-79
2022/06/27 08:43:48;;;;;;;1999.90;999.90;;;26.40;89.40;;;;;;5012195;28;20022;-72
2022/06/27 08:46:18;;;;;;;1999.90;999.90;;;24.90;90.90;;;;;;5026046;28;20032;-78
2022/06/27 08:48:45;;;;;;;1999.90;999.90;;;23.10;92.40;;;;;;5032755;28;20392;-78
2022/06/27 08:51:12;;;;;;;1999.90;999.90;;;21.80;94.00;;;;;;5032478;28;20122;-80
2022/06/27 08:53:38;;;;;;;1999.90;999.90;;;21.10;93.80;;;;;;5028462;28;20036;-72
2022/06/27 08:56:08;;;;;;;1999.90;999.90;;;21.90;93.30;;;;;;5025528;28;20037;-72
2022/06/27 08:58:35;;;;;;;1999.90;999.90;;;23.80;93.70;;;;;;5012681;28;20040;-72
2022/06/27 09:01:02;;;;;;;1999.90;999.90;;;26.80;88.00;;;;;;5013882;28;20184;-79
2022/06/27 09:03:29;;;;;;;1999.90;999.90;;;28.30;85.70;;;;;;5028959;28;20028;-72
2022/06/27 09:06:14;;;;;;;1999.90;999.90;;;28.60;83.60;;;;;;5022788;28;20077;-78
2022/06/27 09:09:18;;;;;;;1999.90;999.90;;;28.10;86.60;;;;;;5015475;28;20021;-72
2022/06/27 09:11:46;;;;;;;1999.90;999.90;;;28.80;84.70;;;;;;4939278;29;20043;-79
2022/06/27 09:14:39;;;;;;;1999.90;999.90;;;27.90;85.00;;;;;;4936234;29;20047;-79
2022/06/27 09:17:09;;;;;;;;;;;26.70;88.30;;;;;;4936625;29;20790;-79
2022/06/27 09:19:53;;;;;;;1999.90;999.90;;;28.00;88.20;;;;;;4936140;29;19961;-78
2022/06/27 09:22:23;;;;;;;1999.90;999.90;;;29.50;83.60;;;;;;4942853;29;20050;-77
2022/06/27 09:25:13;;;;;;;1999.90;999.90;;;30.60;81.40;;;;;;4938436;29;20054;-77
2022/06/27 09:27:50;;;;;;;1999.90;999.90;;;30.50;81.40;;;;;;4931566;29;20467;-77
2022/06/27 09:30:18;;;;;;;1999.90;999.90;;;28.40;84.10;;;;;;4934559;29;20075;-78
2022/06/27 09:32:44;;;;;;;1999.90;999.90;;;27.50;86.50;;;;;;4932920;29;20090;-71
2022/06/27 09:35:32;;;;;;;1999.90;999.90;;;28.30;83.90;;;;;;4936991;29;20038;-71
2022/06/27 09:38:01;;;;;;;1999.90;999.90;;;29.80;81.70;;;;;;4938673;29;20035;-79
2022/06/27 09:40:29;;;;;;;1999.90;999.90;;;30.30;78.80;;;;;;4938048;29;20060;-70
2022/06/27 09:42:56;;;;;;;1999.90;999.90;;;28.40;81.90;;;;;;4999802;28;20034;-72
2022/06/27 09:45:27;;;;;;;1999.90;999.90;;;28.40;82.60;;;;;;5025664;28;20115;-79
2022/06/27 09:48:02;;;;;;;1999.90;999.90;;;28.70;83.90;;;;;;5022212;28;20040;-71
2022/06/27 09:50:29;;;;;;;1999.90;999.90;;;30.40;82.30;;;;;;5022180;28;20045;-70
2022/06/27 09:52:55;;;;;;;1999.90;999.90;;;28.70;83.80;;;;;;5030326;28;20030;-69
2022/06/27 09:55:23;;;;;;;1999.90;999.90;;;28.00;85.60;;;;;;5022168;28;20025;-78
2022/06/27 09:57:50;;;;;;;1999.90;999.90;;;29.20;82.10;;;;;;5026013;28;20510;-79
2022/06/27 10:00:19;;;;;;;1999.90;999.90;;;29.30;80.70;;;;;;5006760;28;20423;-71
2022/06/27 10:02:46;;;;;;;1999.90;999.90;;;27.60;82.20;;;;;;5031286;28;20064;-79
2022/06/27 10:05:14;;;;;;;1999.90;999.90;;;28.70;82.60;;;;;;5031775;28;20021;-79
2022/06/27 10:07:43;;;;;;;1999.90;999.90;;;29.70;80.50;;;;;;5028470;28;20064;-78
2022/06/27 10:10:09;;;;;;;1999.90;999.90;;;30.40;80.50;;;;;;5029794;28;20886;-78
2022/06/27 10:12:36;;;;;;;1999.90;999.90;;;30.10;80.10;;;;;;5026399;28;20049;-69
2022/06/27 10:15:04;;;;;;;1999.90;999.90;;;30.30;81.00;;;;;;5029088;28;20033;-70
2022/06/27 10:17:33;;;;;;;1999.90;999.90;;;30.20;79.10;;;;;;5029275;28;20435;-77
2022/06/27 10:20:06;;;;;;;1999.90;999.90;;;30.20;80.70;;;;;;5023212;28;20034;-78
2022/06/27 10:22:32;;;;;;;1999.90;999.90;;;30.30;80.90;;;;;;5031007;28;20511;-78
2022/06/27 10:25:36;;;;;;;1999.90;999.90;;;30.30;79.60;;;;;;5024904;28;20037;-77
2022/06/27 10:28:12;;;;;;;1999.90;999.90;;;30.40;79.80;;;;;;5029691;28;20362;-69
2022/06/27 10:30:38;;;;;;;1999.90;999.90;;;29.20;80.10;;;;;;5032788;28;20030;-79
2022/06/27 10:33:30;;;;;;;1999.90;999.90;;;29.00;79.30;;;;;;5031632;28;20030;-79
2022/06/27 10:35:59;;;;;;;1999.90;999.90;;;27.70;82.10;;;;;;5022182;28;20088;-71
2022/06/27 10:38:30;;;;;;;1999.90;999.90;;;26.60;83.50;;;;;;5028930;28;20038;-71
2022/06/27 10:40:57;;;;;;;1999.90;999.90;;;27.80;84.20;;;;;;5022469;28;20398;-71
2022/06/27 10:43:41;;;;;;;1999.90;999.90;;;29.00;82.20;;;;;;5024149;28;20026;-79
2022/06/27 10:46:10;;;;;;;1999.90;999.90;;;29.90;80.60;;;;;;5034347;28;20034;-77
2022/06/27 10:48:38;;;;;;;1999.90;999.90;;;30.30;79.50;;;;;;5031668;28;20029;-80
2022/06/27 10:51:26;;;;;;;1999.90;999.90;;;27.60;82.50;;;;;;5023205;28;20057;-71
2022/06/27 10:54:04;;;;;;;1999.90;999.90;;;28.70;80.70;;;;;;5030471;28;20037;-79
2022/06/27 10:56:30;;;;;;;1999.90;999.90;;;26.80;81.80;;;;;;5031894;28;20124;-79
2022/06/27 10:58:57;;;;;;;1999.90;999.90;;;26.10;84.70;;;;;;5032568;28;20100;-78
2022/06/27 11:01:23;;;;;;;1999.90;999.90;;;27.60;84.20;;;;;;5024546;28;20049;-79
2022/06/27 11:03:49;;;;;;;1999.90;999.90;;;27.80;83.60;;;;;;5031636;28;20473;-71
2022/06/27 11:06:15;;;;;;;1999.90;999.90;;;27.40;83.30;;;;;;5025081;28;20049;-71
2022/06/27 11:08:47;;;;;;;1999.90;999.90;;;24.50;85.80;;;;;;5028634;28;20021;-79
2022/06/27 11:11:17;;;;;;;1999.90;999.90;;;23.20;90.60;;;;;;5019861;28;20078;-78
2022/06/27 11:13:46;;;;;;;1999.90;999.90;;;24.40;90.50;;;;;;5020322;28;20207;-79
2022/06/27 11:16:17;;;;;;;1999.90;999.90;;;25.90;86.50;;;;;;5029291;28;20120;-79
2022/06/27 11:18:51;;;;;;;1999.90;999.90;;;25.30;86.50;;;;;;5027318;28;20393;-71
2022/06/27 11:21:24;;;;;;;1999.90;999.90;;;25.10;88.50;;;;;;5024576;28;22146;-79
2022/06/27 11:23:54;;;;;;;;;;;25.30;88.80;;;;;;5029770;28;20025;-80
2022/06/27 11:26:21;;;;;;;1999.90;999.90;;;26.70;85.50;;;;;;5031662;28;19959;-78
2022/06/27 11:34:16;;;;;;;1999.90;999.90;;;25.50;87.20;;;;;;5030696;28;20048;-80
2022/06/27 11:36:42;;;;;;;1999.90;999.90;;;24.20;88.50;;;;;;5029285;28;20067;-79
2022/06/27 11:39:07;;;;;;;1999.90;999.90;;;22.80;91.00;;;;;;5023038;28;20026;-78
2022/06/27 11:41:39;;;;;;;1999.90;999.90;;;22.30;91.70;;;;;;5032478;28;20032;-78
2022/06/27 11:44:07;;;;;;;1999.90;999.90;;;23.50;90.70;;;;;;5033478;28;20017;-72
2022/06/27 11:46:46;;;;;;;1999.90;999.90;;;24.10;89.30;;;;;;5027178;28;20094;-71
2022/06/27 11:49:14;;;;;;;1999.90;999.90;;;25.00;90.30;;;;;;5033378;28;20403;-79
2022/06/27 11:51:47;;;;;;;1999.90;999.90;;;25.40;87.00;;;;;;5031134;28;20135;-79
2022/06/27 11:54:18;;;;;;;1999.90;999.90;;;25.80;88.30;;;;;;5031037;28;20149;-79
2022/06/27 11:56:49;;;;;;;1999.90;999.90;;;24.40;87.70;;;;;;5020305;28;20504;-71
2022/06/27 11:59:16;;;;;;;1999.90;999.90;;;23.30;91.20;;;;;;5029211;28;20054;-79
2022/06/27 12:02:02;;;;;;;1999.90;999.90;;;23.30;90.20;;;;;;5013211;28;20432;-79
2022/06/27 12:04:35;;;;;;;1999.90;999.90;;;23.10;90.20;;;;;;5026000;28;20056;-78
2022/06/27 12:07:08;;;;;;;1999.90;999.90;;;21.50;92.60;;;;;;5024379;28;20045;-79
2022/06/27 12:09:48;;;;;;;1999.90;999.90;;;22.70;92.70;;;;;;5031915;28;20041;-71
2022/06/27 12:12:22;;;;;;;1999.90;999.90;;;25.30;91.30;;;;;;5018954;28;20053;-71